createdAt,value
2018-11-20T00:02:19.660Z,100580.13
2018-11-20T00:05:16.919Z,100573.39
2018-11-20T00:08:14.106Z,100573.94
2018-11-20T00:10:53.649Z,100575.89
2018-11-20T00:13:40.122Z,100573.59
2018-11-20T00:16:28.507Z,100577.55
2018-11-20T00:19:15.652Z,100569.78
2018-11-20T00:22:13.021Z,100574.23
2018-11-20T00:24:53.213Z,100581.11
2018-11-20T00:27:32.009Z,100573.27
2018-11-20T00:30:26.448Z,100576.19
2018-11-20T00:33:16.571Z,100569.11
2018-11-20T00:36:08.051Z,100576.09
2018-11-20T00:38:56.448Z,100575.02
2018-11-20T00:41:34.422Z,100570.83
2018-11-20T00:44:22.759Z,100561.26
2018-11-20T00:47:14.269Z,100574.72
2018-11-20T00:50:02.716Z,100557.73
2018-11-20T00:52:51.181Z,100542.31
2018-11-20T00:56:14.363Z,100540.02
2018-11-20T00:58:55.073Z,100535.58
2018-11-20T01:01:43.420Z,100525.38
2018-11-20T01:04:30.345Z,100520.05
2018-11-20T01:07:17.227Z,100503.84
2018-11-20T01:10:08.180Z,100510.20
2018-11-20T01:12:55.579Z,100507.31
2018-11-20T01:15:42.422Z,100508.63
2018-11-20T01:18:29.848Z,100520.75
2018-11-20T01:21:16.980Z,100513.81
2018-11-20T01:24:05.377Z,100516.94
2018-11-20T01:26:46.062Z,100522.00
2018-11-20T01:29:36.259Z,100517.77
2018-11-20T01:32:23.456Z,100527.82
2018-11-20T01:35:14.126Z,100514.09
2018-11-20T01:37:50.414Z,100512.09
2018-11-20T01:40:27.908Z,100508.14
2018-11-20T01:43:16.635Z,100506.25
2018-11-20T01:46:08.684Z,100505.36
2018-11-20T01:49:06.451Z,100506.48
2018-11-20T01:52:03.865Z,100494.97
2018-11-20T01:55:01.524Z,100500.77
2018-11-20T01:57:56.027Z,100498.57
2018-11-20T02:00:47.422Z,100502.64
2018-11-20T02:03:34.664Z,100501.70
2018-11-20T02:06:28.950Z,100499.31
2018-11-20T02:09:15.002Z,100488.92
2018-11-20T02:12:01.852Z,100469.78
2018-11-20T02:14:58.835Z,100470.81
2018-11-20T02:17:59.397Z,100473.30
2018-11-20T02:20:45.953Z,100463.73
2018-11-20T02:23:33.258Z,100458.70
2018-11-20T02:26:20.310Z,100454.52
2018-11-20T02:29:07.375Z,100461.25
2018-11-20T02:31:58.469Z,100460.91
2018-11-20T02:34:46.911Z,100462.77
2018-11-20T02:37:33.966Z,100469.58
2018-11-20T02:40:22.243Z,100450.91
2018-11-20T02:43:10.218Z,100443.14
2018-11-20T02:45:56.805Z,100438.84
2018-11-20T02:48:47.741Z,100439.05
2018-11-20T02:51:45.183Z,100429.70
2018-11-20T02:54:32.399Z,100424.20
2018-11-20T02:57:19.651Z,100421.72
2018-11-20T03:00:20.137Z,100414.16
2018-11-20T03:03:20.672Z,100418.04
2018-11-20T03:06:24.289Z,100402.77
2018-11-20T03:09:24.795Z,100406.57
2018-11-20T03:12:12.108Z,100404.57
2018-11-20T03:15:00.385Z,100412.28
2018-11-20T03:17:40.228Z,100419.36
2018-11-20T03:20:39.661Z,100402.61
2018-11-20T03:23:26.695Z,100403.59
2018-11-20T03:26:18.804Z,100413.11
2018-11-20T03:29:18.264Z,100399.51
2018-11-20T03:32:15.771Z,100397.48
2018-11-20T03:35:12.742Z,100414.42
2018-11-20T03:38:07.106Z,100390.70
2018-11-20T03:40:50.587Z,100381.77
2018-11-20T03:43:39.062Z,100389.31
2018-11-20T03:46:26.114Z,100376.42
2018-11-20T03:49:26.510Z,100388.14
2018-11-20T03:52:03.798Z,100388.37
2018-11-20T03:54:51.029Z,100395.90
2018-11-20T03:57:31.050Z,100389.05
2018-11-20T04:00:19.048Z,100390.63
2018-11-20T04:03:06.098Z,100375.80
2018-11-20T04:05:53.678Z,100376.72
2018-11-20T04:08:40.946Z,100361.88
2018-11-20T04:11:22.257Z,100367.20
2018-11-20T04:14:10.237Z,100363.05
2018-11-20T04:17:04.672Z,100370.47
2018-11-20T04:19:53.058Z,100359.64
2018-11-20T04:22:53.297Z,100363.88
2018-11-20T04:25:56.905Z,100357.48
2018-11-20T04:28:51.585Z,100361.03
2018-11-20T04:32:11.191Z,100361.18
2018-11-20T04:35:18.924Z,100365.39
2018-11-20T04:38:10.170Z,100385.31
2018-11-20T04:40:51.908Z,100361.55
2018-11-20T04:43:46.527Z,100378.42
2018-11-20T04:46:30.228Z,100376.50
2018-11-20T04:49:17.113Z,100369.28
2018-11-20T04:51:59.238Z,100369.77
2018-11-20T04:54:43.548Z,100369.96
2018-11-20T04:57:43.991Z,100364.28
2018-11-20T05:00:39.567Z,100375.58
2018-11-20T05:03:30.851Z,100381.62
2018-11-20T05:06:25.322Z,100387.24
2018-11-20T05:09:12.536Z,100384.99
2018-11-20T05:11:56.706Z,100397.83
2018-11-20T05:14:43.702Z,100399.98
2018-11-20T05:17:23.244Z,100399.37
2018-11-20T05:20:23.479Z,100400.81
2018-11-20T05:23:24.094Z,100412.06
2018-11-20T05:26:15.162Z,100416.55
2018-11-20T05:29:06.582Z,100392.83
2018-11-20T05:31:53.740Z,100385.06
2018-11-20T05:34:41.107Z,100390.00
2018-11-20T05:37:35.941Z,100399.00
2018-11-20T05:40:31.495Z,100393.00
2018-11-20T05:43:24.610Z,100396.27
2018-11-20T05:46:12.031Z,100400.08
2018-11-20T05:49:06.449Z,100399.73
2018-11-20T05:52:05.730Z,100402.48
2018-11-20T05:54:47.485Z,100403.69
2018-11-20T05:57:34.477Z,100407.76
2018-11-20T06:00:35.078Z,100422.48
2018-11-20T06:03:29.410Z,100401.88
2018-11-20T06:06:23.792Z,100391.00
2018-11-20T06:09:06.316Z,100389.45
2018-11-20T06:11:53.340Z,100392.31
2018-11-20T06:14:37.686Z,100387.99
2018-11-20T06:17:24.755Z,100401.41
2018-11-20T06:20:28.003Z,100400.70
2018-11-20T06:23:28.699Z,100401.90
2018-11-20T06:26:12.447Z,100394.26
2018-11-20T06:28:59.366Z,100407.09
2018-11-20T06:31:43.894Z,100411.61
2018-11-20T06:34:24.113Z,100395.42
2018-11-20T06:37:15.492Z,100416.88
2018-11-20T06:40:02.666Z,100416.51
2018-11-20T06:42:49.853Z,100413.87
2018-11-20T06:45:38.514Z,100416.25
2018-11-20T06:48:42.868Z,100422.01
2018-11-20T06:51:34.087Z,100426.11
2018-11-20T06:54:25.418Z,100431.78
2018-11-20T06:57:26.217Z,100428.17
2018-11-20T07:00:20.100Z,100415.62
2018-11-20T07:03:07.309Z,100418.94
2018-11-20T07:05:48.104Z,100420.19
2018-11-20T07:08:39.388Z,100426.28
2018-11-20T07:11:27.877Z,100410.96
2018-11-20T07:14:19.454Z,100397.22
2018-11-20T07:16:55.872Z,100404.30
2018-11-20T07:19:45.544Z,100392.80
2018-11-20T07:22:33.891Z,100383.63
2018-11-20T07:25:24.878Z,100384.66
2018-11-20T07:28:19.182Z,100388.83
2018-11-20T07:31:06.459Z,100381.87
2018-11-20T07:33:54.869Z,100380.84
2018-11-20T07:36:41.910Z,100377.09
2018-11-20T07:39:28.503Z,100382.36
2018-11-20T07:42:06.066Z,100389.78
2018-11-20T07:45:00.231Z,100375.66
2018-11-20T07:47:48.614Z,100383.41
2018-11-20T07:50:30.925Z,100373.13
2018-11-20T07:53:18.109Z,100367.96
2018-11-20T07:56:05.537Z,100368.71
2018-11-20T07:58:52.221Z,100371.50
2018-11-20T08:01:43.207Z,100362.77
2018-11-20T08:04:30.421Z,100373.64
2018-11-20T08:07:17.379Z,100362.01
2018-11-20T08:10:05.843Z,100358.63
2018-11-20T08:12:53.006Z,100357.58
2018-11-20T08:15:38.412Z,100365.08
2018-11-20T08:18:19.449Z,100366.78
2018-11-20T08:21:03.016Z,100371.78
2018-11-20T08:23:49.987Z,100363.53
2018-11-20T08:26:31.744Z,100346.52
2018-11-20T08:29:35.060Z,100348.55
2018-11-20T08:32:20.938Z,100336.45
2018-11-20T08:35:04.688Z,100333.67
2018-11-20T08:37:59.554Z,100328.77
2018-11-20T08:40:53.684Z,100319.54
2018-11-20T08:43:41.861Z,100320.98
2018-11-20T08:46:28.982Z,100313.56
2018-11-20T08:49:16.232Z,100316.53
2018-11-20T08:52:07.206Z,100316.69
2018-11-20T08:54:48.565Z,100311.63
2018-11-20T08:57:52.096Z,100307.86
2018-11-20T09:00:40.497Z,100292.20
2018-11-20T09:03:28.942Z,100297.63
2018-11-20T09:06:29.531Z,100295.81
2018-11-20T09:09:27.095Z,100288.34
2018-11-20T09:12:27.731Z,100297.76
2018-11-20T09:15:16.165Z,100294.14
2018-11-20T09:18:10.508Z,100288.81
2018-11-20T09:20:57.510Z,100287.64
2018-11-20T09:23:58.212Z,100290.47
2018-11-20T09:26:45.434Z,100287.07
2018-11-20T09:29:36.734Z,100291.52
2018-11-20T09:32:12.278Z,100287.93
2018-11-20T09:34:53.552Z,100299.41
2018-11-20T09:37:54.011Z,100280.17
2018-11-20T09:41:00.915Z,100289.43
2018-11-20T09:44:25.752Z,100291.91
2018-11-20T09:47:26.029Z,100291.14
2018-11-20T09:50:14.643Z,100295.03
2018-11-20T09:53:05.728Z,100294.75
2018-11-20T09:56:06.527Z,100298.09
2018-11-20T09:58:42.813Z,100292.24
2018-11-20T10:01:33.735Z,100298.84
2018-11-20T10:04:28.194Z,100300.01
2018-11-20T10:07:16.745Z,100306.02
2018-11-20T10:10:03.849Z,100308.27
2018-11-20T10:12:43.125Z,100307.44
2018-11-20T10:15:41.760Z,100310.58
2018-11-20T10:18:40.268Z,100295.14
2018-11-20T10:21:27.645Z,100295.45
2018-11-20T10:24:19.098Z,100276.69
2018-11-20T10:27:01.187Z,100296.44
2018-11-20T10:29:49.085Z,100278.63
2018-11-20T10:32:36.931Z,100282.75
2018-11-20T10:35:24.492Z,100278.55
2018-11-20T10:38:04.593Z,100279.64
2018-11-20T10:40:51.748Z,100284.51
2018-11-20T10:43:38.868Z,100274.13
2018-11-20T10:46:33.267Z,100275.01
2018-11-20T10:49:21.628Z,100265.99
2018-11-20T10:52:13.858Z,100261.89
2018-11-20T10:55:14.067Z,100278.45
2018-11-20T10:58:14.654Z,100266.25
2018-11-20T11:01:01.895Z,100250.45
2018-11-20T11:03:49.300Z,100243.84
2018-11-20T11:06:37.632Z,100244.34
2018-11-20T11:09:36.489Z,100244.67
2018-11-20T11:12:28.714Z,100247.98
2018-11-20T11:15:15.936Z,100240.28
2018-11-20T11:17:59.803Z,100244.79
2018-11-20T11:20:46.940Z,100226.75
2018-11-20T11:23:44.323Z,100227.77
2018-11-20T11:26:32.741Z,100214.20
2018-11-20T11:29:36.298Z,100217.10
2018-11-20T11:32:23.864Z,100212.03
2018-11-20T11:35:24.098Z,100234.16
2018-11-20T11:38:15.479Z,100222.48
2018-11-20T11:41:22.272Z,100220.08
2018-11-20T11:44:09.234Z,100218.70
2018-11-20T11:47:12.965Z,100223.80
2018-11-20T11:50:05.675Z,100208.41
2018-11-20T11:53:02.673Z,100220.61
2018-11-20T11:56:09.219Z,100203.05
2018-11-20T11:58:56.584Z,100204.31
2018-11-20T12:04:40.150Z,100199.59
2018-11-20T12:07:29.675Z,100184.27
2018-11-20T12:10:36.514Z,100210.23
2018-11-20T12:13:33.899Z,100188.39
2018-11-20T12:16:40.658Z,100172.73
2018-11-20T12:19:29.094Z,100172.08
2018-11-20T12:22:23.481Z,100161.45
2018-11-20T12:25:10.682Z,100172.50
2018-11-20T12:27:58.798Z,100165.63
2018-11-20T12:30:49.136Z,100149.90
2018-11-20T12:33:49.435Z,100145.99
2018-11-20T12:36:53.671Z,100141.38
2018-11-20T12:39:31.161Z,100153.06
2018-11-20T12:42:25.654Z,100147.78
2018-11-20T12:45:13.565Z,100157.23
2018-11-20T12:48:03.632Z,100157.16
2018-11-20T12:51:05.481Z,100150.83
2018-11-20T12:53:54.297Z,100159.21
2018-11-20T12:56:41.293Z,100168.92
2018-11-20T12:59:34.159Z,100153.02
2018-11-20T13:02:24.585Z,100151.38
2018-11-20T13:05:11.708Z,100156.22
2018-11-20T13:08:00.658Z,100155.89
2018-11-20T13:10:48.624Z,100152.27
2018-11-20T13:13:50.499Z,100164.53
2018-11-20T13:16:37.784Z,100146.38
2018-11-20T13:19:21.170Z,100151.45
2018-11-20T13:22:12.383Z,100140.06
2018-11-20T13:24:59.859Z,100142.02
2018-11-20T13:27:47.989Z,100140.98
2018-11-20T13:30:40.668Z,100133.56
2018-11-20T13:33:49.446Z,100135.53
2018-11-20T13:36:30.956Z,100129.77
2018-11-20T13:39:28.261Z,100137.86
2018-11-20T13:42:16.712Z,100125.25
2018-11-20T13:45:14.977Z,100124.58
2018-11-20T13:48:00.710Z,100127.55
2018-11-20T13:50:47.757Z,100130.35
2018-11-20T13:53:36.155Z,100129.88
2018-11-20T13:56:23.691Z,100128.71
2018-11-20T13:59:10.437Z,100126.56
2018-11-20T14:01:57.125Z,100128.20
2018-11-20T14:04:43.989Z,100118.47
2018-11-20T14:07:38.012Z,100116.98
2018-11-20T14:10:37.756Z,100115.50
2018-11-20T14:13:18.547Z,100108.86
2018-11-20T14:16:15.855Z,100099.78
2018-11-20T14:19:06.836Z,100104.07
2018-11-20T14:21:54.384Z,100109.02
2018-11-20T14:24:41.807Z,100093.84
2018-11-20T14:27:29.315Z,100105.05
2018-11-20T14:30:16.440Z,100099.54
2018-11-20T14:33:05.572Z,100097.55
2018-11-20T14:36:05.977Z,100105.96
2018-11-20T14:38:56.492Z,100113.89
2018-11-20T14:41:40.975Z,100097.22
2018-11-20T14:44:35.129Z,100091.63
2018-11-20T14:47:22.456Z,100101.69
2018-11-20T14:50:10.843Z,100097.99
2018-11-20T14:53:05.459Z,100100.12
2018-11-20T14:56:02.710Z,100102.11
2018-11-20T14:58:49.623Z,100100.97
2018-11-20T15:01:36.583Z,100093.03
2018-11-20T15:04:28.008Z,100097.64
2018-11-20T15:07:14.837Z,100099.09
2018-11-20T15:10:01.878Z,100099.91
2018-11-20T15:12:56.080Z,100101.44
2018-11-20T15:15:48.088Z,100102.76
2018-11-20T15:18:48.389Z,100102.22
2018-11-20T15:21:42.621Z,100095.94
2018-11-20T15:24:32.068Z,100107.47
2018-11-20T15:27:29.285Z,100098.50
2018-11-20T15:30:16.265Z,100097.66
2018-11-20T15:33:12.996Z,100091.19
2018-11-20T15:36:10.097Z,100096.77
2018-11-20T15:38:57.132Z,100097.75
2018-11-20T15:41:37.137Z,100090.20
2018-11-20T15:44:25.613Z,100086.70
2018-11-20T15:47:12.469Z,100095.87
2018-11-20T15:49:59.362Z,100081.86
2018-11-20T15:52:47.774Z,100077.08
2018-11-20T15:55:34.832Z,100080.85
2018-11-20T15:58:22.247Z,100084.16
2018-11-20T16:01:23.245Z,100083.36
2018-11-20T16:04:06.693Z,100079.22
2018-11-20T16:07:01.648Z,100087.47
2018-11-20T16:09:52.682Z,100092.41
2018-11-20T16:12:59.612Z,100085.48
2018-11-20T16:15:46.783Z,100090.00
2018-11-20T16:18:37.903Z,100086.94
2018-11-20T16:21:29.347Z,100085.95
2018-11-20T16:24:16.258Z,100084.33
2018-11-20T16:27:03.050Z,100086.32
2018-11-20T16:30:09.953Z,100095.36
2018-11-20T16:32:58.295Z,100089.52
2018-11-20T16:35:37.810Z,100089.67
2018-11-20T16:38:27.311Z,100102.60
2018-11-20T16:41:14.281Z,100086.12
2018-11-20T16:43:55.300Z,100098.16
2018-11-20T16:46:36.207Z,100090.07
2018-11-20T16:49:23.999Z,100087.77
2018-11-20T16:52:23.655Z,100086.52
2018-11-20T16:55:10.814Z,100086.02
2018-11-20T16:58:02.279Z,100077.78
2018-11-20T17:00:59.048Z,100086.30
2018-11-20T17:03:53.090Z,100069.17
2018-11-20T17:06:39.904Z,100079.50
2018-11-20T17:09:29.285Z,100071.72
2018-11-20T17:12:23.459Z,100074.66
2018-11-20T17:15:14.657Z,100083.79
2018-11-20T17:18:01.546Z,100070.95
2018-11-20T17:20:48.542Z,100070.98
2018-11-20T17:23:39.970Z,100072.95
2018-11-20T17:26:31.484Z,100065.56
2018-11-20T17:29:25.709Z,100069.82
2018-11-20T17:32:12.808Z,100064.06
2018-11-20T17:35:07.353Z,100069.33
2018-11-20T17:37:46.739Z,100068.02
2018-11-20T17:40:30.737Z,100068.02
2018-11-20T17:43:25.260Z,100061.61
2018-11-20T17:46:09.256Z,100061.48
2018-11-20T17:48:48.636Z,100056.06
2018-11-20T17:51:35.631Z,100066.63
2018-11-20T17:54:39.318Z,100061.66
2018-11-20T17:57:32.744Z,100060.50
2018-11-20T18:00:21.637Z,100055.10
2018-11-20T18:03:02.980Z,100058.05
2018-11-20T18:05:57.409Z,100055.23
2018-11-20T18:08:51.369Z,100064.95
2018-11-20T18:11:45.681Z,100077.91
2018-11-20T18:14:32.598Z,100068.05
2018-11-20T18:17:21.031Z,100068.20
2018-11-20T18:20:09.418Z,100072.77
2018-11-20T18:23:03.468Z,100059.70
2018-11-20T18:26:00.968Z,100069.89
2018-11-20T18:28:42.454Z,100073.34
2018-11-20T18:31:36.665Z,100076.92
2018-11-20T18:34:44.347Z,100078.58
2018-11-20T18:37:23.177Z,100077.07
2018-11-20T18:40:20.776Z,100081.77
2018-11-20T18:43:24.179Z,100079.48
2018-11-20T18:46:11.465Z,100078.13
2018-11-20T18:48:58.716Z,100074.37
2018-11-20T18:51:55.839Z,100076.81
2018-11-20T18:54:56.331Z,100089.97
2018-11-20T18:57:42.738Z,100093.92
2018-11-20T19:00:31.155Z,100094.33
2018-11-20T19:03:37.998Z,100097.48
2018-11-20T19:06:17.851Z,100098.73
2018-11-20T19:09:24.540Z,100104.64
2018-11-20T19:12:11.648Z,100104.11
2018-11-20T19:14:58.468Z,100104.45
2018-11-20T19:17:45.716Z,100103.69
2018-11-20T19:20:37.362Z,100101.06
2018-11-20T19:23:35.171Z,100106.36
2018-11-20T19:26:26.573Z,100105.16
2018-11-20T19:29:13.753Z,100104.67
2018-11-20T19:32:02.220Z,100116.52
2018-11-20T19:34:48.854Z,100119.64
2018-11-20T19:37:52.563Z,100124.00
2018-11-20T19:40:59.284Z,100125.77
2018-11-20T19:43:46.338Z,100128.55
2018-11-20T19:46:40.896Z,100123.62
2018-11-20T19:49:38.168Z,100124.23
2018-11-20T19:52:26.234Z,100127.77
2018-11-20T19:55:19.474Z,100125.58
2018-11-20T20:00:59.382Z,100124.45
2018-11-20T20:03:48.795Z,100123.20
2018-11-20T20:06:53.804Z,100126.18
2018-11-20T20:09:45.185Z,100119.53
2018-11-20T20:12:32.538Z,100128.06
2018-11-20T20:15:19.742Z,100130.89
2018-11-20T20:18:06.619Z,100129.87
2018-11-20T20:21:10.244Z,100122.98
2018-11-20T20:23:52.188Z,100126.56
2018-11-20T20:26:46.729Z,100119.30
2018-11-20T20:29:35.185Z,100118.89
2018-11-20T20:32:24.764Z,100118.36
2018-11-20T20:35:25.353Z,100118.40
2018-11-20T20:38:22.528Z,100118.73
2018-11-20T20:41:09.825Z,100120.66
2018-11-20T20:44:00.838Z,100117.23
2018-11-20T20:47:01.314Z,100122.09
2018-11-20T20:49:49.749Z,100117.76
2018-11-20T20:52:52.781Z,100117.00
2018-11-20T20:55:50.542Z,100117.08
2018-11-20T21:01:03.681Z,100124.23
2018-11-20T21:03:50.853Z,100130.09
2018-11-20T21:06:33.273Z,100134.64
2018-11-20T21:09:19.678Z,100136.25
2018-11-20T21:12:00.143Z,100132.95
2018-11-20T21:14:42.267Z,100132.52
2018-11-20T21:17:39.122Z,100139.86
2018-11-20T21:20:42.126Z,100141.38
2018-11-20T21:23:30.879Z,100147.69
2018-11-20T21:26:30.499Z,100144.71
2018-11-20T21:29:20.856Z,100143.85
2018-11-20T21:32:07.325Z,100153.06
2018-11-20T21:35:00.818Z,100146.97
2018-11-20T21:37:47.321Z,100149.75
2018-11-20T21:40:34.935Z,100159.94
2018-11-20T21:43:21.383Z,100159.26
2018-11-20T21:46:18.091Z,100168.66
2018-11-20T21:49:04.389Z,100169.49
2018-11-20T21:51:50.721Z,100169.00
2018-11-20T21:54:28.483Z,100173.44
2018-11-20T21:57:16.099Z,100173.78
2018-11-20T22:00:05.733Z,100174.08
2018-11-20T22:03:04.096Z,100174.98
2018-11-20T22:05:54.350Z,100172.20
2018-11-20T22:08:47.689Z,100176.34
2018-11-20T22:11:34.129Z,100169.77
2018-11-20T22:14:21.803Z,100177.32
2018-11-20T22:17:09.407Z,100171.48
2018-11-20T22:19:55.534Z,100165.28
2018-11-20T22:23:01.226Z,100173.67
2018-11-20T22:25:55.210Z,100178.07
2018-11-20T22:28:41.386Z,100167.79
2018-11-20T22:31:27.745Z,100169.37
2018-11-20T22:34:14.868Z,100174.03
2018-11-20T22:37:01.452Z,100173.80
2018-11-20T22:39:47.706Z,100170.20
2018-11-20T22:42:34.274Z,100178.23
2018-11-20T22:45:33.763Z,100177.22
2018-11-20T22:48:27.435Z,100173.56
2018-11-20T22:51:21.343Z,100184.69
2018-11-20T22:54:15.004Z,100184.08
2018-11-20T22:57:01.406Z,100181.23
2018-11-20T22:59:57.950Z,100188.92
2018-11-20T23:02:48.458Z,100182.98
2018-11-20T23:05:44.171Z,100180.95
2018-11-20T23:08:12.677Z,100175.83
2018-11-20T23:10:41.165Z,100173.34
2018-11-20T23:13:09.711Z,100170.57
2018-11-20T23:15:38.251Z,100166.43
2018-11-20T23:18:06.667Z,100164.77
2018-11-20T23:20:35.330Z,100174.66
2018-11-20T23:23:03.850Z,100171.88
2018-11-20T23:25:32.403Z,100174.52
2018-11-20T23:28:00.982Z,100172.86
2018-11-20T23:30:29.588Z,100171.06
2018-11-20T23:32:58.083Z,100167.19
2018-11-20T23:35:26.598Z,100159.84
2018-11-20T23:37:55.217Z,100168.90
2018-11-20T23:40:23.779Z,100163.64
2018-11-20T23:42:52.329Z,100174.31
2018-11-20T23:45:20.808Z,100172.80
2018-11-20T23:47:49.292Z,100172.31
2018-11-20T23:50:17.823Z,100179.23
2018-11-20T23:52:46.369Z,100172.65
2018-11-20T23:55:15.423Z,100169.73
2018-11-20T23:57:43.961Z,100169.95
